sensor_id;sensor_type;location;lat;lon;timestamp;temperature;humidity
26049;DHT22;13822;51.568;5.086;2022-07-22T05:31:50;16.30;99.90
26049;DHT22;13822;51.568;5.086;2022-07-22T05:36:53;16.40;99.90
26049;DHT22;13822;51.568;5.086;2022-07-22T05:41:55;16.40;99.90
26049;DHT22;13822;51.568;5.086;2022-07-22T05:46:57;16.50;99.90
26049;DHT22;13822;51.568;5.086;2022-07-22T05:51:59;16.50;99.90
26049;DHT22;13822;51.568;5.086;2022-07-22T05:57:02;16.60;99.90
26049;DHT22;13822;51.568;5.086;2022-07-22T06:02:04;16.60;99.90
26049;DHT22;13822;51.568;5.086;2022-07-22T06:07:07;16.70;99.90
26049;DHT22;13822;51.568;5.086;2022-07-22T06:12:09;16.70;99.90
26049;DHT22;13822;51.568;5.086;2022-07-22T06:17:12;16.70;99.90
26049;DHT22;13822;51.568;5.086;2022-07-22T06:22:14;16.80;99.90
26049;DHT22;13822;51.568;5.086;2022-07-22T06:27:19;16.90;99.90
26049;DHT22;13822;51.568;5.086;2022-07-22T06:32:21;17.00;99.90
26049;DHT22;13822;51.568;5.086;2022-07-22T06:37:23;17.00;99.90
26049;DHT22;13822;51.568;5.086;2022-07-22T06:42:45;17.00;99.90
26049;DHT22;13822;51.568;5.086;2022-07-22T06:47:47;17.10;99.90
26049;DHT22;13822;51.568;5.086;2022-07-22T06:52:49;17.20;99.90
26049;DHT22;13822;51.568;5.086;2022-07-22T06:57:52;17.10;99.90
26049;DHT22;13822;51.568;5.086;2022-07-22T07:02:57;17.20;99.90
26049;DHT22;13822;51.568;5.086;2022-07-22T07:08:20;17.20;99.90
26049;DHT22;13822;51.568;5.086;2022-07-22T07:13:22;17.30;99.90
26049;DHT22;13822;51.568;5.086;2022-07-22T07:18:24;17.30;99.90
26049;DHT22;13822;51.568;5.086;2022-07-22T07:23:26;17.30;99.90
26049;DHT22;13822;51.568;5.086;2022-07-22T07:28:28;17.50;99.90
26049;DHT22;13822;51.568;5.086;2022-07-22T07:33:31;17.60;99.90
26049;DHT22;13822;51.568;5.086;2022-07-22T07:38:33;17.60;99.90
26049;DHT22;13822;51.568;5.086;2022-07-22T07:43:35;17.70;99.90
26049;DHT22;13822;51.568;5.086;2022-07-22T07:48:38;17.70;99.90
26049;DHT22;13822;51.568;5.086;2022-07-22T07:53:40;17.90;99.90
26049;DHT22;13822;51.568;5.086;2022-07-22T07:58:42;17.90;99.90
26049;DHT22;13822;51.568;5.086;2022-07-22T08:04:05;18.00;99.90
26049;DHT22;13822;51.568;5.086;2022-07-22T08:09:27;18.00;99.90
26049;DHT22;13822;51.568;5.086;2022-07-22T08:14:29;18.00;99.90
26049;DHT22;13822;51.568;5.086;2022-07-22T08:19:31;18.00;99.90
26049;DHT22;13822;51.568;5.086;2022-07-22T08:24:33;18.10;99.90
26049;DHT22;13822;51.568;5.086;2022-07-22T08:29:35;18.10;99.90
26049;DHT22;13822;51.568;5.086;2022-07-22T08:34:37;18.10;99.90
26049;DHT22;13822;51.568;5.086;2022-07-22T08:39:39;18.20;99.90
26049;DHT22;13822;51.568;5.086;2022-07-22T08:44:41;18.30;99.90
26049;DHT22;13822;51.568;5.086;2022-07-22T08:49:43;18.30;99.90
26049;DHT22;13822;51.568;5.086;2022-07-22T08:54:46;18.40;99.90
26049;DHT22;13822;51.568;5.086;2022-07-22T08:59:51;18.50;99.90
26049;DHT22;13822;51.568;5.086;2022-07-22T09:05:01;18.50;99.90
26049;DHT22;13822;51.568;5.086;2022-07-22T09:10:29;18.60;99.90
26049;DHT22;13822;51.568;5.086;2022-07-22T09:15:34;18.70;99.90
26049;DHT22;13822;51.568;5.086;2022-07-22T09:20:44;18.90;99.90
26049;DHT22;13822;51.568;5.086;2022-07-22T09:25:46;19.10;99.90
26049;DHT22;13822;51.568;5.086;2022-07-22T09:30:53;19.20;99.90
26049;DHT22;13822;51.568;5.086;2022-07-22T09:36:03;19.30;99.90
26049;DHT22;13822;51.568;5.086;2022-07-22T09:41:06;19.20;99.90
26049;DHT22;13822;51.568;5.086;2022-07-22T09:46:09;19.40;99.90
26049;DHT22;13822;51.568;5.086;2022-07-22T09:51:11;19.40;99.90
26049;DHT22;13822;51.568;5.086;2022-07-22T09:56:13;19.60;99.90
26049;DHT22;13822;51.568;5.086;2022-07-22T10:01:16;19.80;99.90
26049;DHT22;13822;51.568;5.086;2022-07-22T10:06:19;20.10;99.90
26049;DHT22;13822;51.568;5.086;2022-07-22T10:11:21;20.20;99.90
26049;DHT22;13822;51.568;5.086;2022-07-22T10:16:23;20.20;99.90
26049;DHT22;13822;51.568;5.086;2022-07-22T10:21:32;20.20;99.90
26049;DHT22;13822;51.568;5.086;2022-07-22T10:26:53;20.40;99.90
26049;DHT22;13822;51.568;5.086;2022-07-22T10:43:02;21.00;99.90
26049;DHT22;13822;51.568;5.086;2022-07-22T10:48:10;21.00;99.90
26049;DHT22;13822;51.568;5.086;2022-07-22T10:53:25;21.20;99.90
26049;DHT22;13822;51.568;5.086;2022-07-22T10:58:49;21.60;99.90
26049;DHT22;13822;51.568;5.086;2022-07-22T11:04:08;21.80;99.90
26049;DHT22;13822;51.568;5.086;2022-07-22T11:09:22;22.20;99.90
26049;DHT22;13822;51.568;5.086;2022-07-22T11:14:30;22.50;99.90
26049;DHT22;13822;51.568;5.086;2022-07-22T11:19:39;22.70;99.90
26049;DHT22;13822;51.568;5.086;2022-07-22T11:24:41;22.60;99.90
26049;DHT22;13822;51.568;5.086;2022-07-22T11:29:48;22.70;99.90
26049;DHT22;13822;51.568;5.086;2022-07-22T11:34:52;22.90;99.90
26049;DHT22;13822;51.568;5.086;2022-07-22T11:40:03;22.90;99.90
26049;DHT22;13822;51.568;5.086;2022-07-22T11:45:07;22.90;99.90
26049;DHT22;13822;51.568;5.086;2022-07-22T11:50:09;23.00;99.90
26049;DHT22;13822;51.568;5.086;2022-07-22T11:55:15;23.30;99.90
26049;DHT22;13822;51.568;5.086;2022-07-22T12:00:18;23.40;99.90
26049;DHT22;13822;51.568;5.086;2022-07-22T12:05:21;23.60;99.90
26049;DHT22;13822;51.568;5.086;2022-07-22T12:10:39;23.70;99.90
26049;DHT22;13822;51.568;5.086;2022-07-22T12:15:41;23.80;99.90
26049;DHT22;13822;51.568;5.086;2022-07-22T12:20:48;23.70;99.90
26049;DHT22;13822;51.568;5.086;2022-07-22T12:25:58;23.70;99.90
26049;DHT22;13822;51.568;5.086;2022-07-22T12:31:02;23.60;99.90
26049;DHT22;13822;51.568;5.086;2022-07-22T12:36:06;23.40;99.90
26049;DHT22;13822;51.568;5.086;2022-07-22T12:41:25;23.40;99.90
26049;DHT22;13822;51.568;5.086;2022-07-22T12:46:28;23.20;99.90
26049;DHT22;13822;51.568;5.086;2022-07-22T12:51:30;23.10;99.90
26049;DHT22;13822;51.568;5.086;2022-07-22T12:56:32;23.10;99.90
26049;DHT22;13822;51.568;5.086;2022-07-22T13:01:37;23.20;99.90
26049;DHT22;13822;51.568;5.086;2022-07-22T13:06:39;23.20;99.90
26049;DHT22;13822;51.568;5.086;2022-07-22T13:11:41;23.00;99.90
26049;DHT22;13822;51.568;5.086;2022-07-22T13:16:47;23.10;99.90
26049;DHT22;13822;51.568;5.086;2022-07-22T13:21:51;23.30;99.90
26049;DHT22;13822;51.568;5.086;2022-07-22T13:26:53;23.20;99.90
26049;DHT22;13822;51.568;5.086;2022-07-22T13:31:55;23.30;99.90
26049;DHT22;13822;51.568;5.086;2022-07-22T13:37:17;23.10;99.90
26049;DHT22;13822;51.568;5.086;2022-07-22T13:42:19;23.10;99.90
26049;DHT22;13822;51.568;5.086;2022-07-22T13:47:21;23.00;99.90
26049;DHT22;13822;51.568;5.086;2022-07-22T13:52:24;23.00;99.90
26049;DHT22;13822;51.568;5.086;2022-07-22T13:57:26;23.10;99.90
26049;DHT22;13822;51.568;5.086;2022-07-22T14:02:28;23.30;99.90
26049;DHT22;13822;51.568;5.086;2022-07-22T14:07:30;23.40;99.90
26049;DHT22;13822;51.568;5.086;2022-07-22T14:12:32;23.40;99.90
26049;DHT22;13822;51.568;5.086;2022-07-22T14:17:34;23.30;99.90
26049;DHT22;13822;51.568;5.086;2022-07-22T14:22:37;23.30;99.90
26049;DHT22;13822;51.568;5.086;2022-07-22T14:27:39;23.40;99.90
26049;DHT22;13822;51.568;5.086;2022-07-22T14:32:41;23.60;99.90
26049;DHT22;13822;51.568;5.086;2022-07-22T14:37:43;23.60;99.90
26049;DHT22;13822;51.568;5.086;2022-07-22T14:42:45;23.60;99.90
26049;DHT22;13822;51.568;5.086;2022-07-22T14:47:48;23.70;99.90
26049;DHT22;13822;51.568;5.086;2022-07-22T14:52:50;23.70;99.90
26049;DHT22;13822;51.568;5.086;2022-07-22T14:57:52;23.70;99.90
26049;DHT22;13822;51.568;5.086;2022-07-22T15:02:54;23.60;99.90
26049;DHT22;13822;51.568;5.086;2022-07-22T15:07:55;23.60;99.90
26049;DHT22;13822;51.568;5.086;2022-07-22T15:12:58;23.60;99.90
26049;DHT22;13822;51.568;5.086;2022-07-22T15:17:59;23.30;99.90
26049;DHT22;13822;51.568;5.086;2022-07-22T15:23:02;23.00;99.90
26049;DHT22;13822;51.568;5.086;2022-07-22T15:28:04;23.00;99.90
26049;DHT22;13822;51.568;5.086;2022-07-22T15:33:28;22.80;99.90
26049;DHT22;13822;51.568;5.086;2022-07-22T15:38:39;22.70;99.90
26049;DHT22;13822;51.568;5.086;2022-07-22T15:43:41;22.70;99.90
26049;DHT22;13822;51.568;5.086;2022-07-22T15:48:43;22.60;99.90
26049;DHT22;13822;51.568;5.086;2022-07-22T15:53:46;22.60;99.90
26049;DHT22;13822;51.568;5.086;2022-07-22T15:58:48;22.50;99.90
26049;DHT22;13822;51.568;5.086;2022-07-22T16:04:28;22.50;99.90
26049;DHT22;13822;51.568;5.086;2022-07-22T16:09:31;22.50;99.90
26049;DHT22;13822;51.568;5.086;2022-07-22T16:14:33;22.50;99.90
26049;DHT22;13822;51.568;5.086;2022-07-22T16:19:35;22.40;99.90
26049;DHT22;13822;51.568;5.086;2022-07-22T16:24:37;22.30;99.90
26049;DHT22;13822;51.568;5.086;2022-07-22T16:29:39;22.30;99.90
26049;DHT22;13822;51.568;5.086;2022-07-22T16:34:41;22.10;99.90
26049;DHT22;13822;51.568;5.086;2022-07-22T16:39:44;22.20;99.90
26049;DHT22;13822;51.568;5.086;2022-07-22T16:44:47;22.10;99.90
26049;DHT22;13822;51.568;5.086;2022-07-22T16:49:48;22.10;99.90
26049;DHT22;13822;51.568;5.086;2022-07-22T16:54:51;22.20;99.90
26049;DHT22;13822;51.568;5.086;2022-07-22T16:59:56;22.00;99.90
26049;DHT22;13822;51.568;5.086;2022-07-22T17:04:58;21.90;99.90
26049;DHT22;13822;51.568;5.086;2022-07-22T17:10:00;21.70;99.90
26049;DHT22;13822;51.568;5.086;2022-07-22T17:15:02;21.70;99.90
26049;DHT22;13822;51.568;5.086;2022-07-22T17:20:05;21.60;99.90
26049;DHT22;13822;51.568;5.086;2022-07-22T17:25:08;21.50;99.90
26049;DHT22;13822;51.568;5.086;2022-07-22T17:30:16;21.40;99.90
26049;DHT22;13822;51.568;5.086;2022-07-22T17:35:18;21.40;99.90
26049;DHT22;13822;51.568;5.086;2022-07-22T17:40:20;21.30;99.90
26049;DHT22;13822;51.568;5.086;2022-07-22T17:45:23;21.30;99.90
26049;DHT22;13822;51.568;5.086;2022-07-22T17:50:28;21.10;99.90
26049;DHT22;13822;51.568;5.086;2022-07-22T17:55:30;21.20;99.90
26049;DHT22;13822;51.568;5.086;2022-07-22T18:00:32;21.20;99.90
26049;DHT22;13822;51.568;5.086;2022-07-22T18:05:34;21.10;99.90
26049;DHT22;13822;51.568;5.086;2022-07-22T18:10:37;21.00;99.90
26049;DHT22;13822;51.568;5.086;2022-07-22T18:15:39;21.00;99.90
26049;DHT22;13822;51.568;5.086;2022-07-22T18:20:41;21.00;99.90
26049;DHT22;13822;51.568;5.086;2022-07-22T18:25:43;20.90;99.90
26049;DHT22;13822;51.568;5.086;2022-07-22T18:30:47;20.90;99.90
26049;DHT22;13822;51.568;5.086;2022-07-22T18:35:49;20.80;99.90
26049;DHT22;13822;51.568;5.086;2022-07-22T18:40:52;20.80;99.90
26049;DHT22;13822;51.568;5.086;2022-07-22T18:45:54;20.60;99.90
26049;DHT22;13822;51.568;5.086;2022-07-22T18:50:56;20.60;99.90
26049;DHT22;13822;51.568;5.086;2022-07-22T18:55:58;20.50;99.90
26049;DHT22;13822;51.568;5.086;2022-07-22T19:01:00;20.40;99.90
26049;DHT22;13822;51.568;5.086;2022-07-22T19:06:03;20.30;99.90
26049;DHT22;13822;51.568;5.086;2022-07-22T19:11:06;20.30;99.90
26049;DHT22;13822;51.568;5.086;2022-07-22T19:16:08;20.20;99.90
26049;DHT22;13822;51.568;5.086;2022-07-22T19:21:10;20.20;99.90
26049;DHT22;13822;51.568;5.086;2022-07-22T19:26:13;20.10;99.90
26049;DHT22;13822;51.568;5.086;2022-07-22T19:31:15;20.20;99.90
26049;DHT22;13822;51.568;5.086;2022-07-22T19:36:17;20.10;99.90
26049;DHT22;13822;51.568;5.086;2022-07-22T19:41:19;20.00;99.90
26049;DHT22;13822;51.568;5.086;2022-07-22T19:46:24;20.00;99.90
26049;DHT22;13822;51.568;5.086;2022-07-22T19:51:26;19.90;99.90
26049;DHT22;13822;51.568;5.086;2022-07-22T19:56:29;19.80;99.90
26049;DHT22;13822;51.568;5.086;2022-07-22T20:01:31;19.80;99.90
26049;DHT22;13822;51.568;5.086;2022-07-22T20:06:33;19.70;99.90
